Time;durP1;ratioP1;P1;durP2;ratioP2;P2;SDS_P1;SDS_P2;PMS_P1;PMS_P2;Temp;Humidity;BMP_temperature;BMP_pressure;BME280_temperature;BME280_humidity;BME280_pressure;Samples;Min_cycle;Max_cycle;Signal;HPM_P1;HPM_P2
2023/01/04 00:00:11;;;;;;;3.47;1.00;;;9.60;99.90;;;;;;4996408;28;20030;-68
2023/01/04 00:02:37;;;;;;;0.90;0.65;;;9.50;99.90;;;;;;4993246;28;20026;-72
2023/01/04 00:05:04;;;;;;;0.95;0.82;;;9.50;99.90;;;;;;4992615;28;20021;-65
2023/01/04 00:07:29;;;;;;;2.25;2.05;;;9.60;99.90;;;;;;4993502;28;20031;-65
2023/01/04 00:09:55;;;;;;;3.05;1.02;;;9.60;99.90;;;;;;4993765;28;20018;-71
2023/01/04 00:12:22;;;;;;;2.47;0.88;;;9.60;99.90;;;;;;4994142;28;20062;-65
2023/01/04 00:14:48;;;;;;;3.28;1.63;;;9.70;99.90;;;;;;4994330;28;20379;-65
2023/01/04 00:17:13;;;;;;;0.90;0.55;;;9.60;99.90;;;;;;4994589;28;20110;-65
2023/01/04 00:19:39;;;;;;;2.72;1.20;;;9.60;99.90;;;;;;4993605;28;20038;-73
2023/01/04 00:22:05;;;;;;;1.30;1.08;;;9.60;99.90;;;;;;4993220;28;20022;-73
2023/01/04 00:24:31;;;;;;;1.45;1.17;;;9.70;99.90;;;;;;4989762;28;20023;-66
2023/01/04 00:26:57;;;;;;;1.15;0.95;;;9.80;99.90;;;;;;4990629;28;20117;-66
2023/01/04 00:29:23;;;;;;;1.52;1.05;;;9.80;99.90;;;;;;4995026;28;20541;-64
2023/01/04 00:31:49;;;;;;;5.55;1.60;;;9.80;99.90;;;;;;4995975;28;20085;-67
2023/01/04 00:34:16;;;;;;;1.70;1.02;;;9.80;99.90;;;;;;4992785;28;20034;-66
2023/01/04 00:36:43;;;;;;;3.53;1.38;;;9.90;99.90;;;;;;4996524;28;20042;-65
2023/01/04 00:39:14;;;;;;;0.73;0.65;;;10.00;99.90;;;;;;4993860;28;20066;-67
2023/01/04 00:41:48;;;;;;;0.98;0.55;;;9.90;99.90;;;;;;4994096;28;20061;-72
2023/01/04 00:44:15;;;;;;;0.98;0.88;;;10.00;99.90;;;;;;4992648;28;20061;-71
2023/01/04 00:46:42;;;;;;;2.95;1.25;;;10.00;99.90;;;;;;4992116;28;20042;-66
2023/01/04 00:49:09;;;;;;;2.72;1.20;;;10.10;99.90;;;;;;4995143;28;20027;-71
2023/01/04 00:51:36;;;;;;;3.88;2.05;;;10.00;99.90;;;;;;4994375;28;20404;-65
2023/01/04 00:54:06;;;;;;;8.85;1.98;;;10.10;99.90;;;;;;5007101;28;20045;-66
2023/01/04 00:56:33;;;;;;;3.13;1.48;;;10.10;99.90;;;;;;5006743;28;20437;-65
2023/01/04 00:59:01;;;;;;;1.35;0.75;;;10.10;99.90;;;;;;5013134;28;20077;-67
2023/01/04 01:01:29;;;;;;;5.07;1.13;;;10.10;99.90;;;;;;4994260;28;20026;-69
2023/01/04 01:03:56;;;;;;;0.85;0.40;;;10.20;99.90;;;;;;4998421;28;20018;-69
2023/01/04 01:06:23;;;;;;;4.97;1.88;;;10.20;99.90;;;;;;5009211;28;20088;-65
2023/01/04 01:08:53;;;;;;;10.25;2.22;;;10.20;99.90;;;;;;4992921;28;20053;-70
2023/01/04 01:11:20;;;;;;;1.67;1.08;;;10.20;99.90;;;;;;4991869;28;20026;-66
2023/01/04 01:13:46;;;;;;;3.08;1.33;;;10.20;99.90;;;;;;4996023;28;20030;-72
2023/01/04 01:16:15;;;;;;;3.97;1.40;;;10.20;99.90;;;;;;4994479;28;20463;-66
2023/01/04 01:18:43;;;;;;;3.95;1.77;;;10.20;99.90;;;;;;4994111;28;20648;-65
2023/01/04 01:21:16;;;;;;;3.13;1.40;;;10.30;99.90;;;;;;4990660;28;20754;-65
2023/01/04 01:23:42;;;;;;;1.95;1.40;;;10.20;99.90;;;;;;4993759;28;20042;-72
2023/01/04 01:26:11;;;;;;;3.78;1.30;;;10.30;99.90;;;;;;4997626;28;20030;-65
2023/01/04 01:28:37;;;;;;;1.30;1.20;;;10.30;99.90;;;;;;4993158;28;20376;-65
2023/01/04 01:31:08;;;;;;;3.85;1.70;;;10.30;99.90;;;;;;4991670;28;20033;-66
2023/01/04 01:33:36;;;;;;;0.77;0.77;;;10.30;99.90;;;;;;4999209;28;20539;-65
2023/01/04 01:36:02;;;;;;;3.95;1.15;;;10.30;99.90;;;;;;4997046;28;20129;-65
2023/01/04 01:38:28;;;;;;;2.05;1.13;;;10.30;99.90;;;;;;4995406;28;20093;-65
2023/01/04 01:40:54;;;;;;;1.50;1.40;;;10.40;99.90;;;;;;4991401;28;20117;-66
2023/01/04 01:43:22;;;;;;;3.05;2.00;;;10.40;99.90;;;;;;4995570;28;20037;-70
2023/01/04 01:45:54;;;;;;;2.08;1.20;;;10.40;99.90;;;;;;4992711;28;20529;-65
2023/01/04 01:48:27;;;;;;;8.07;1.60;;;10.40;99.90;;;;;;4994488;28;20034;-67
2023/01/04 01:50:58;;;;;;;3.28;0.93;;;10.40;99.90;;;;;;4996940;28;20474;-65
2023/01/04 01:53:27;;;;;;;3.08;1.40;;;10.40;99.90;;;;;;4999467;28;20116;-67
2023/01/04 01:55:55;;;;;;;1.92;1.02;;;10.50;99.90;;;;;;4995336;28;20491;-65
2023/01/04 01:58:26;;;;;;;2.03;1.10;;;10.50;99.90;;;;;;4997496;28;20026;-73
2023/01/04 02:00:52;;;;;;;2.00;1.90;;;10.50;99.90;;;;;;4987146;28;20422;-65
2023/01/04 02:03:20;;;;;;;3.88;2.08;;;10.50;99.90;;;;;;4996061;28;20029;-71
2023/01/04 02:05:50;;;;;;;3.65;1.65;;;10.50;99.90;;;;;;4994661;28;20105;-65
2023/01/04 02:08:17;;;;;;;1.40;0.98;;;10.50;99.90;;;;;;4993435;28;20058;-67
2023/01/04 02:10:43;;;;;;;2.50;1.77;;;10.50;99.90;;;;;;4999029;28;20861;-65
2023/01/04 02:13:13;;;;;;;5.13;1.15;;;10.40;99.90;;;;;;4996504;28;20053;-65
2023/01/04 02:16:08;;;;;;;4.45;1.50;;;10.50;99.90;;;;;;4995960;28;20043;-72
2023/01/04 02:18:45;;;;;;;7.57;1.85;;;10.50;99.90;;;;;;4986506;28;20092;-68
2023/01/04 02:21:21;;;;;;;7.40;2.33;;;10.50;99.90;;;;;;4998200;28;20037;-70
2023/01/04 02:24:04;;;;;;;5.38;1.30;;;10.50;99.90;;;;;;4996965;28;20030;-65
2023/01/04 02:27:01;;;;;;;2.55;1.50;;;10.50;99.90;;;;;;4998376;28;20045;-65
2023/01/04 02:30:00;;;;;;;0.82;0.82;;;10.50;99.90;;;;;;4995807;28;20084;-67
2023/01/04 02:33:04;;;;;;;2.35;1.35;;;10.60;99.90;;;;;;4995795;28;20018;-65
2023/01/04 02:36:13;;;;;;;1.33;0.95;;;10.70;99.90;;;;;;4996663;28;20498;-65
2023/01/04 02:39:16;;;;;;;1.55;1.13;;;10.70;99.90;;;;;;4996960;28;20026;-65
2023/01/04 02:42:03;;;;;;;2.30;1.67;;;10.60;99.90;;;;;;4998894;28;20058;-65
2023/01/04 02:44:51;;;;;;;0.75;0.75;;;10.70;99.90;;;;;;4999592;28;20041;-65
2023/01/04 02:50:32;;;;;;;0.68;0.68;;;10.80;99.90;;;;;;4995732;28;20026;-65
2023/01/04 02:53:10;;;;;;;;;;;10.80;99.90;;;;;;4997929;28;20046;-67
2023/01/04 02:55:51;;;;;;;10.40;1.50;;;10.80;99.90;;;;;;5009344;28;19909;-65
2023/01/04 02:58:22;;;;;;;10.37;1.70;;;10.80;99.90;;;;;;4996637;28;20029;-65
2023/01/04 03:07:02;;;;;;;4.57;2.05;;;10.80;99.90;;;;;;4994577;28;20088;-65
2023/01/04 03:09:32;;;;;;;3.60;1.98;;;10.80;99.90;;;;;;4996781;28;20049;-65
2023/01/04 03:14:59;;;;;;;1.05;0.75;;;10.80;99.90;;;;;;4996605;28;20056;-65
2023/01/04 03:17:30;;;;;;;0.98;0.80;;;10.80;99.90;;;;;;4993637;28;20485;-65
2023/01/04 03:19:58;;;;;;;3.08;1.30;;;10.80;99.90;;;;;;4996700;28;20049;-65
2023/01/04 03:37:10;;;;;;;0.88;0.50;;;10.80;99.90;;;;;;4994830;28;20034;-66
2023/01/04 03:49:26;;;;;;;3.15;1.92;;;11.00;99.90;;;;;;4998460;28;20034;-64
2023/01/04 03:51:57;;;;;;;2.47;1.83;;;11.10;99.90;;;;;;5004970;28;20118;-65
2023/01/04 03:54:43;;;;;;;0.60;0.60;;;11.00;99.90;;;;;;5008805;28;20729;-70
2023/01/04 03:57:12;;;;;;;1.15;1.00;;;11.00;99.90;;;;;;5011517;28;20030;-64
2023/01/04 03:59:47;;;;;;;4.20;0.57;;;11.00;99.90;;;;;;5012535;28;20431;-64
2023/01/04 04:02:13;;;;;;;0.30;0.30;;;11.10;99.90;;;;;;5011621;28;20041;-64
2023/01/04 04:10:13;;;;;;;2.40;1.35;;;11.30;99.90;;;;;;5008422;28;20084;-65
2023/01/04 04:12:38;;;;;;;4.07;1.20;;;11.30;99.90;;;;;;5004443;28;20021;-69
2023/01/04 04:15:05;;;;;;;1.60;0.95;;;11.30;99.90;;;;;;5018458;28;20479;-64
2023/01/04 04:17:30;;;;;;;1.95;1.15;;;11.30;99.90;;;;;;5012914;28;20033;-66
2023/01/04 04:19:56;;;;;;;1.48;0.82;;;11.20;99.90;;;;;;5012954;28;20022;-71
2023/01/04 04:22:22;;;;;;;3.22;1.38;;;11.30;99.90;;;;;;5013937;28;20529;-66
2023/01/04 04:24:48;;;;;;;0.63;0.63;;;11.30;99.90;;;;;;5012737;28;20072;-65
2023/01/04 04:27:13;;;;;;;7.28;1.02;;;11.40;99.90;;;;;;5012626;28;20030;-69
2023/01/04 04:29:39;;;;;;;2.45;0.90;;;11.40;99.90;;;;;;5011734;28;20463;-64
2023/01/04 04:32:05;;;;;;;16.50;1.05;;;11.40;99.90;;;;;;5012644;28;20477;-65
2023/01/04 04:34:31;;;;;;;0.85;0.75;;;11.40;99.90;;;;;;5011941;28;20030;-64
2023/01/04 04:36:57;;;;;;;1.55;0.95;;;11.40;99.90;;;;;;5012870;28;20073;-65
2023/01/04 04:39:22;;;;;;;4.88;1.20;;;11.40;99.90;;;;;;5012603;28;20021;-64
2023/01/04 04:41:48;;;;;;;4.03;1.05;;;11.40;99.90;;;;;;5012691;28;20037;-71
2023/01/04 04:44:16;;;;;;;18.52;1.33;;;11.40;99.90;;;;;;5011182;28;20029;-64
2023/01/04 04:46:43;;;;;;;0.98;0.98;;;11.40;99.90;;;;;;5012361;28;20029;-64
2023/01/04 04:49:09;;;;;;;0.60;0.60;;;11.50;99.90;;;;;;5012315;28;20057;-64
2023/01/04 04:51:36;;;;;;;7.97;1.00;;;11.50;99.90;;;;;;5012440;28;20116;-64
2023/01/04 04:54:02;;;;;;;0.20;0.20;;;11.50;99.90;;;;;;5012401;28;20041;-65
2023/01/04 04:56:28;;;;;;;0.82;0.82;;;11.50;99.90;;;;;;5012488;28;20014;-64
2023/01/04 04:58:53;;;;;;;5.82;1.25;;;11.50;99.90;;;;;;5010563;28;20382;-64
2023/01/04 05:01:19;;;;;;;0.68;0.60;;;11.50;99.90;;;;;;5012661;28;20021;-64
2023/01/04 05:03:45;;;;;;;2.40;1.15;;;11.40;99.90;;;;;;5004608;28;20459;-66
2023/01/04 05:06:12;;;;;;;4.93;1.00;;;11.40;99.90;;;;;;5011983;28;20046;-69
2023/01/04 05:08:38;;;;;;;0.63;0.63;;;11.40;99.90;;;;;;5012310;28;20076;-65
2023/01/04 05:11:08;;;;;;;2.63;0.98;;;11.40;99.90;;;;;;5011807;28;20038;-64
2023/01/04 05:13:34;;;;;;;1.92;1.08;;;11.40;99.90;;;;;;5009528;28;20469;-65
2023/01/04 05:16:01;;;;;;;4.22;1.45;;;11.50;99.90;;;;;;5012130;28;20029;-64
2023/01/04 05:18:27;;;;;;;0.65;0.65;;;11.60;99.90;;;;;;5012333;28;20522;-70
2023/01/04 05:20:53;;;;;;;1.25;0.70;;;11.70;99.90;;;;;;5012209;28;20117;-71
2023/01/04 05:23:20;;;;;;;3.95;0.82;;;11.70;99.90;;;;;;5016194;28;20029;-64
2023/01/04 05:25:52;;;;;;;0.95;0.60;;;11.70;99.90;;;;;;5014718;28;20037;-64
2023/01/04 05:28:18;;;;;;;4.03;1.25;;;11.60;99.90;;;;;;5016074;28;20022;-64
2023/01/04 05:30:50;;;;;;;0.35;0.35;;;11.60;99.90;;;;;;5015712;28;20033;-64
2023/01/04 05:33:18;;;;;;;1.88;1.10;;;11.60;99.90;;;;;;5014920;28;20445;-64
2023/01/04 05:35:45;;;;;;;0.30;0.30;;;11.60;99.90;;;;;;5015909;28;20029;-66
2023/01/04 05:38:11;;;;;;;0.45;0.45;;;11.60;99.90;;;;;;5014365;28;20428;-64
2023/01/04 05:40:37;;;;;;;1.08;0.70;;;11.60;99.90;;;;;;4997323;28;20035;-64
2023/01/04 05:43:03;;;;;;;1.60;0.68;;;11.60;99.90;;;;;;5001354;28;20034;-64
2023/01/04 05:45:29;;;;;;;4.60;1.42;;;11.60;99.90;;;;;;4998042;28;20521;-64
2023/01/04 05:47:55;;;;;;;3.30;0.90;;;11.50;99.90;;;;;;4994598;28;20049;-65
2023/01/04 05:50:22;;;;;;;0.63;0.60;;;11.50;99.90;;;;;;5008247;28;20463;-64
2023/01/04 05:52:48;;;;;;;4.30;1.52;;;11.50;99.90;;;;;;4996335;28;20053;-69
2023/01/04 05:55:14;;;;;;;0.80;0.80;;;11.50;99.90;;;;;;5004781;28;20034;-64
2023/01/04 05:57:40;;;;;;;2.55;1.38;;;11.50;99.90;;;;;;4999618;28;20030;-64
2023/01/04 06:00:07;;;;;;;1.80;1.25;;;11.40;99.90;;;;;;5004231;28;20033;-65
2023/01/04 06:02:38;;;;;;;3.25;1.10;;;11.50;99.90;;;;;;4999700;28;20026;-64
2023/01/04 06:05:05;;;;;;;0.77;0.77;;;11.50;99.90;;;;;;4998448;28;20386;-64
2023/01/04 06:07:31;;;;;;;0.55;0.55;;;11.50;99.90;;;;;;5010686;28;20030;-64
2023/01/04 06:09:57;;;;;;;3.42;0.80;;;11.50;99.90;;;;;;5014245;28;20054;-71
2023/01/04 06:12:23;;;;;;;1.25;1.15;;;11.50;99.90;;;;;;5015026;28;20030;-65
2023/01/04 06:14:49;;;;;;;0.77;0.68;;;11.50;99.90;;;;;;5015196;28;20040;-64
2023/01/04 06:17:14;;;;;;;1.15;0.80;;;11.50;99.90;;;;;;5014928;28;20026;-65
2023/01/04 06:19:40;;;;;;;0.80;0.68;;;11.50;99.90;;;;;;4995366;28;20034;-64
2023/01/04 06:22:07;;;;;;;2.63;1.63;;;11.60;99.90;;;;;;4994095;28;20031;-70
2023/01/04 06:24:33;;;;;;;0.88;0.40;;;11.60;99.90;;;;;;4998929;28;20033;-64
2023/01/04 06:27:00;;;;;;;1.85;1.27;;;11.70;99.90;;;;;;5014767;28;20057;-64
2023/01/04 06:29:25;;;;;;;1.90;1.15;;;11.70;99.90;;;;;;5015161;28;20030;-71
2023/01/04 06:31:51;;;;;;;2.25;1.30;;;11.70;99.90;;;;;;5014516;28;20104;-64
2023/01/04 06:34:17;;;;;;;0.60;0.60;;;11.70;99.90;;;;;;5015014;28;20101;-64
2023/01/04 06:36:43;;;;;;;1.08;0.98;;;11.70;99.90;;;;;;5013695;28;20437;-64
2023/01/04 06:39:09;;;;;;;0.77;0.63;;;11.70;99.90;;;;;;5014989;28;20421;-65
2023/01/04 06:41:35;;;;;;;1.08;0.85;;;11.80;99.90;;;;;;5010506;28;20030;-65
2023/01/04 06:44:01;;;;;;;1.85;0.75;;;11.80;99.90;;;;;;4998129;28;20378;-68
2023/01/04 06:46:27;;;;;;;1.33;0.80;;;11.80;99.90;;;;;;4979491;28;20581;-64
2023/01/04 06:48:53;;;;;;;5.97;0.93;;;11.80;99.90;;;;;;4997318;28;20034;-68
2023/01/04 06:51:20;;;;;;;0.30;0.30;;;11.80;99.90;;;;;;5014301;28;20041;-64
2023/01/04 06:53:46;;;;;;;2.70;1.38;;;11.90;99.90;;;;;;5014483;28;20037;-64
2023/01/04 06:56:12;;;;;;;0.50;0.50;;;11.80;99.90;;;;;;5003149;28;20026;-64
2023/01/04 06:58:38;;;;;;;1.25;0.75;;;11.80;99.90;;;;;;4994981;28;20025;-69
2023/01/04 07:01:04;;;;;;;2.65;0.73;;;11.90;99.90;;;;;;5012506;28;20018;-64
2023/01/04 07:03:30;;;;;;;0.50;0.50;;;11.80;99.90;;;;;;5014172;28;20041;-65
2023/01/04 07:05:56;;;;;;;2.38;0.40;;;11.90;99.90;;;;;;5012703;28;20042;-64
2023/01/04 07:08:23;;;;;;;0.65;0.60;;;11.90;99.90;;;;;;5013640;28;20014;-69
2023/01/04 07:10:49;;;;;;;2.03;1.48;;;11.90;99.90;;;;;;5013895;28;20034;-65
2023/01/04 07:13:15;;;;;;;0.75;0.75;;;11.90;99.90;;;;;;5013847;28;20032;-65
2023/01/04 07:15:40;;;;;;;5.60;1.30;;;11.90;99.90;;;;;;5014249;28;20026;-70
2023/01/04 07:18:08;;;;;;;4.35;0.52;;;12.00;99.90;;;;;;5013568;28;20034;-65
2023/01/04 07:20:34;;;;;;;0.75;0.40;;;12.00;99.90;;;;;;5014099;28;20422;-64
2023/01/04 07:23:00;;;;;;;0.77;0.52;;;12.00;99.90;;;;;;5012678;28;20030;-64
2023/01/04 07:25:26;;;;;;;8.80;1.23;;;12.00;99.90;;;;;;5013564;28;20018;-64
2023/01/04 07:27:52;;;;;;;5.57;5.15;;;12.00;99.90;;;;;;5012623;28;20073;-64
2023/01/04 07:30:19;;;;;;;2.63;0.98;;;12.00;99.90;;;;;;5014035;28;20104;-64
2023/01/04 07:32:45;;;;;;;3.03;1.30;;;12.00;99.90;;;;;;5012626;28;20026;-64
2023/01/04 07:35:10;;;;;;;2.47;1.60;;;12.00;99.90;;;;;;5013867;28;20366;-64
2023/01/04 07:37:36;;;;;;;2.10;0.35;;;12.00;99.90;;;;;;5013786;28;20022;-64
2023/01/04 07:40:02;;;;;;;2.45;0.65;;;11.90;99.90;;;;;;5013649;28;20030;-64
2023/01/04 07:42:28;;;;;;;2.70;0.68;;;12.00;99.90;;;;;;5013559;28;20033;-65
2023/01/04 07:44:54;;;;;;;0.93;0.40;;;12.00;99.90;;;;;;5013125;28;20475;-64
2023/01/04 07:47:20;;;;;;;4.97;0.93;;;12.00;99.90;;;;;;5013786;28;20073;-64
2023/01/04 07:49:47;;;;;;;1.88;1.42;;;12.10;99.90;;;;;;5013560;28;20475;-63
2023/01/04 07:52:13;;;;;;;10.45;2.30;;;12.10;99.90;;;;;;5013071;28;20041;-63
2023/01/04 07:54:39;;;;;;;0.95;0.63;;;12.20;99.90;;;;;;5012305;28;20475;-63
2023/01/04 07:57:05;;;;;;;5.30;0.70;;;12.20;99.90;;;;;;5013605;28;20022;-64
2023/01/04 07:59:30;;;;;;;4.80;1.27;;;12.20;99.90;;;;;;5013381;28;20421;-74
2023/01/04 08:01:56;;;;;;;2.53;0.85;;;12.30;99.90;;;;;;5013467;28;20494;-71
2023/01/04 08:04:23;;;;;;;1.13;0.82;;;12.40;99.90;;;;;;5014102;28;20113;-65
2023/01/04 08:06:50;;;;;;;3.28;1.65;;;12.40;99.90;;;;;;5015286;28;20117;-64
2023/01/04 08:09:16;;;;;;;7.03;1.63;;;12.40;99.90;;;;;;5015389;28;20018;-64
2023/01/04 08:11:43;;;;;;;7.88;1.40;;;12.40;99.90;;;;;;5013319;28;20084;-68
2023/01/04 08:14:10;;;;;;;2.70;0.88;;;12.40;99.90;;;;;;5013290;28;20030;-64
2023/01/04 08:16:38;;;;;;;4.55;1.08;;;12.50;99.90;;;;;;5013360;28;20030;-66
2023/01/04 08:19:05;;;;;;;0.82;0.65;;;12.60;99.90;;;;;;5012875;28;20067;-67
2023/01/04 08:21:33;;;;;;;1.58;0.80;;;12.60;99.90;;;;;;5012590;28;20073;-64
2023/01/04 08:23:59;;;;;;;1.77;0.75;;;12.60;99.90;;;;;;5012649;28;20374;-64
2023/01/04 08:26:26;;;;;;;3.85;1.08;;;12.60;99.90;;;;;;5012930;28;20509;-64
2023/01/04 08:28:53;;;;;;;8.52;1.13;;;12.60;99.90;;;;;;5013051;28;20542;-65
2023/01/04 08:31:27;;;;;;;4.65;0.85;;;12.60;99.90;;;;;;5012886;28;20165;-64
2023/01/04 08:33:54;;;;;;;2.58;0.43;;;12.60;99.90;;;;;;5013198;28;20045;-64
2023/01/04 08:36:28;;;;;;;0.30;0.28;;;12.50;99.90;;;;;;5012815;28;20115;-65
2023/01/04 08:38:56;;;;;;;1.63;0.75;;;12.50;99.90;;;;;;5013059;28;20037;-64
2023/01/04 08:41:22;;;;;;;6.75;0.90;;;12.50;99.90;;;;;;5013018;28;20433;-65
2023/01/04 08:43:47;;;;;;;6.03;1.15;;;12.40;99.90;;;;;;5011446;28;20108;-64
2023/01/04 08:46:13;;;;;;;2.55;0.93;;;12.40;99.90;;;;;;5012756;28;20493;-64
2023/01/04 08:48:40;;;;;;;3.45;0.70;;;12.40;99.90;;;;;;5013049;28;20586;-66
2023/01/04 08:51:12;;;;;;;1.67;0.68;;;12.40;99.90;;;;;;5012461;28;20030;-64
2023/01/04 08:53:38;;;;;;;1.48;1.02;;;12.40;99.90;;;;;;5011530;28;20041;-65
2023/01/04 08:56:05;;;;;;;2.90;1.10;;;12.40;99.90;;;;;;5015803;28;20022;-64
2023/01/04 08:58:31;;;;;;;7.70;3.03;;;12.40;99.90;;;;;;5015842;28;20506;-66
2023/01/04 09:01:05;;;;;;;0.43;0.38;;;12.50;99.90;;;;;;5016710;28;20044;-65
2023/01/04 09:03:31;;;;;;;0.32;0.32;;;12.50;99.90;;;;;;5016846;28;20516;-64
2023/01/04 09:06:09;;;;;;;1.75;0.98;;;12.50;99.90;;;;;;5016091;28;20029;-64
2023/01/04 09:08:36;;;;;;;2.22;1.67;;;12.50;99.90;;;;;;5016926;28;20044;-65
2023/01/04 09:11:09;;;;;;;6.10;1.48;;;12.60;99.90;;;;;;5016520;28;20030;-64
2023/01/04 09:13:35;;;;;;;3.47;1.55;;;12.60;99.90;;;;;;5016771;28;20034;-66
2023/01/04 09:16:03;;;;;;;1.23;1.08;;;12.70;99.90;;;;;;5015255;28;20538;-66
2023/01/04 09:18:29;;;;;;;2.17;0.57;;;12.60;99.90;;;;;;5016672;28;20474;-64
2023/01/04 09:20:56;;;;;;;3.85;0.65;;;12.70;99.90;;;;;;5015733;28;20041;-66
2023/01/04 09:23:22;;;;;;;2.95;0.80;;;12.60;99.90;;;;;;5015200;28;20058;-66
2023/01/04 09:25:48;;;;;;;0.47;0.38;;;12.60;99.90;;;;;;5016311;28;20060;-66
2023/01/04 09:28:14;;;;;;;1.27;1.15;;;12.60;99.90;;;;;;5016247;28;20038;-66
2023/01/04 09:30:40;;;;;;;4.07;2.42;;;12.50;99.90;;;;;;5016165;28;20101;-63
2023/01/04 09:33:05;;;;;;;0.93;0.50;;;12.50;99.90;;;;;;5016402;28;20356;-69
2023/01/04 09:35:32;;;;;;;4.60;1.42;;;12.50;99.90;;;;;;5016057;28;20463;-69
2023/01/04 09:37:57;;;;;;;16.00;1.70;;;12.50;99.90;;;;;;5016019;28;20029;-65
2023/01/04 09:40:46;;;;;;;1.48;0.95;;;12.40;99.90;;;;;;5016141;28;20021;-65
2023/01/04 09:43:18;;;;;;;3.20;1.08;;;12.40;99.90;;;;;;4986109;28;20129;-65
2023/01/04 09:45:46;;;;;;;5.78;0.82;;;12.50;99.90;;;;;;5015821;28;20041;-65
2023/01/04 09:48:18;;;;;;;1.02;0.77;;;12.50;99.90;;;;;;5016105;28;20221;-67
2023/01/04 09:50:58;;;;;;;0.75;0.75;;;12.40;99.90;;;;;;5015060;28;20483;-65
2023/01/04 09:53:27;;;;;;;5.90;0.98;;;12.30;99.90;;;;;;5015694;28;20478;-64
2023/01/04 09:55:58;;;;;;;0.30;0.30;;;12.40;99.90;;;;;;5015611;28;20021;-65
2023/01/04 09:58:40;;;;;;;1.67;1.00;;;12.40;99.90;;;;;;5015914;28;20034;-68
2023/01/04 10:01:13;;;;;;;2.88;0.50;;;12.30;99.90;;;;;;5015667;28;20034;-65
2023/01/04 10:04:03;;;;;;;4.97;0.85;;;12.40;99.90;;;;;;5015540;28;20026;-65
2023/01/04 10:06:33;;;;;;;1.45;0.77;;;12.30;99.90;;;;;;5014727;28;20066;-65
2023/01/04 10:09:03;;;;;;;3.58;0.70;;;12.30;99.90;;;;;;5015789;28;20033;-68
2023/01/04 10:11:35;;;;;;;1.40;0.60;;;12.40;99.90;;;;;;5015527;28;20022;-65
2023/01/04 10:14:16;;;;;;;0.15;0.15;;;12.30;99.90;;;;;;5015663;28;20029;-65
2023/01/04 10:17:01;;;;;;;2.83;0.55;;;12.30;99.90;;;;;;5015396;28;20033;-65
2023/01/04 10:19:36;;;;;;;0.65;0.32;;;12.30;99.90;;;;;;5015002;28;20030;-65
2023/01/04 10:22:15;;;;;;;1.33;0.80;;;12.20;99.90;;;;;;5015198;28;20466;-65
2023/01/04 10:24:53;;;;;;;0.57;0.28;;;12.20;99.90;;;;;;5015363;28;20439;-65
2023/01/04 10:27:44;;;;;;;3.65;0.52;;;12.20;99.90;;;;;;5015037;28;20033;-69
2023/01/04 10:30:28;;;;;;;1.75;0.75;;;12.30;99.90;;;;;;5015495;28;20025;-65
2023/01/04 10:33:13;;;;;;;0.55;0.50;;;12.20;99.90;;;;;;5014534;28;20053;-65
2023/01/04 10:35:42;;;;;;;2.22;0.60;;;12.20;99.90;;;;;;5015503;28;20052;-65
2023/01/04 10:38:31;;;;;;;2.60;0.75;;;12.20;99.90;;;;;;5014844;28;20026;-65
2023/01/04 10:41:01;;;;;;;0.40;0.40;;;12.20;99.90;;;;;;5015352;28;20080;-66
2023/01/04 10:43:45;;;;;;;1.02;0.80;;;12.20;99.90;;;;;;5014826;28;20034;-64
2023/01/04 10:46:21;;;;;;;0.85;0.52;;;12.20;99.90;;;;;;5014817;28;20129;-70
2023/01/04 10:48:55;;;;;;;0.25;0.25;;;12.30;99.90;;;;;;5014630;28;20034;-65
2023/01/04 10:51:30;;;;;;;0.55;0.55;;;12.20;99.90;;;;;;5013973;28;20030;-69
2023/01/04 10:54:02;;;;;;;0.40;0.40;;;12.30;99.90;;;;;;5013360;28;20048;-71
2023/01/04 10:56:57;;;;;;;1.25;0.52;;;12.20;99.90;;;;;;5014913;28;20034;-65
2023/01/04 10:59:30;;;;;;;2.42;0.52;;;12.20;99.90;;;;;;5014638;28;20029;-64
2023/01/04 11:02:01;;;;;;;1.70;0.65;;;12.20;99.90;;;;;;5012982;28;20038;-65
2023/01/04 11:04:45;;;;;;;0.45;0.30;;;12.20;99.90;;;;;;5014565;28;20026;-65
2023/01/04 11:07:35;;;;;;;0.70;0.50;;;12.30;99.90;;;;;;5014302;28;20045;-72
2023/01/04 11:10:21;;;;;;;2.08;0.98;;;12.30;99.90;;;;;;5014490;28;20034;-69
2023/01/04 11:12:47;;;;;;;0.30;0.30;;;12.30;99.90;;;;;;5013589;28;20042;-65
2023/01/04 11:15:13;;;;;;;0.52;0.45;;;12.30;99.90;;;;;;5013044;28;20041;-66
2023/01/04 11:17:41;;;;;;;0.77;0.77;;;12.20;99.90;;;;;;5013462;28;20044;-65
2023/01/04 11:20:07;;;;;;;0.22;0.22;;;12.30;99.90;;;;;;5013726;28;20025;-65
2023/01/04 11:22:47;;;;;;;2.25;0.68;;;12.20;99.90;;;;;;5013970;28;20030;-65
2023/01/04 11:25:18;;;;;;;3.20;0.30;;;12.30;99.90;;;;;;5013800;28;20035;-65
2023/01/04 11:27:49;;;;;;;0.75;0.30;;;12.30;99.90;;;;;;5013755;28;20474;-65
2023/01/04 11:30:20;;;;;;;0.50;0.50;;;12.30;99.90;;;;;;5013814;28;20022;-65
2023/01/04 11:32:55;;;;;;;0.93;0.43;;;12.30;99.90;;;;;;5013902;28;20026;-65
2023/01/04 11:35:36;;;;;;;0.47;0.47;;;12.30;99.90;;;;;;5014023;28;20055;-65
2023/01/04 11:38:14;;;;;;;1.75;0.55;;;12.30;99.90;;;;;;5013761;28;20025;-65
2023/01/04 11:40:40;;;;;;;2.25;0.98;;;12.30;99.90;;;;;;5013837;28;20022;-65
2023/01/04 11:43:18;;;;;;;0.32;0.32;;;12.30;99.90;;;;;;5013706;28;20018;-65
2023/01/04 11:46:06;;;;;;;0.80;0.80;;;12.30;99.90;;;;;;5013449;28;20041;-65
2023/01/04 11:48:32;;;;;;;1.27;0.55;;;12.30;99.90;;;;;;5013561;28;20114;-66
2023/01/04 11:50:58;;;;;;;0.15;0.15;;;12.20;99.90;;;;;;5013401;28;20018;-71
2023/01/04 11:53:35;;;;;;;1.05;0.65;;;12.30;99.90;;;;;;5011595;28;20536;-66
2023/01/04 11:56:15;;;;;;;0.10;0.10;;;12.30;99.90;;;;;;5013502;28;20033;-66
2023/01/04 11:58:43;;;;;;;0.20;0.17;;;12.30;99.90;;;;;;5013527;28;20083;-66
2023/01/04 12:01:24;;;;;;;0.22;0.22;;;12.30;99.90;;;;;;5011995;28;20022;-65
2023/01/04 12:03:50;;;;;;;0.43;0.43;;;12.40;99.90;;;;;;5013525;28;20482;-65
2023/01/04 12:06:31;;;;;;;0.65;0.47;;;12.40;99.90;;;;;;5013409;28;20048;-65
2023/01/04 12:08:57;;;;;;;0.47;0.47;;;12.40;99.90;;;;;;5012141;28;20026;-69
2023/01/04 12:11:34;;;;;;;0.30;0.30;;;12.40;99.90;;;;;;5012814;28;20351;-65
2023/01/04 12:14:02;;;;;;;0.47;0.40;;;12.40;99.90;;;;;;5012826;28;20030;-65
2023/01/04 12:16:50;;;;;;;0.55;0.32;;;12.40;99.90;;;;;;5013091;28;20021;-65
2023/01/04 12:19:18;;;;;;;0.10;0.10;;;12.40;99.90;;;;;;5013051;28;20030;-68
2023/01/04 12:21:48;;;;;;;0.65;0.40;;;12.50;99.90;;;;;;5013070;28;20042;-65
2023/01/04 12:24:21;;;;;;;0.10;0.10;;;12.40;99.90;;;;;;5013092;28;20616;-65
2023/01/04 12:26:49;;;;;;;0.13;0.13;;;12.50;99.90;;;;;;5013045;28;20120;-65
2023/01/04 12:29:23;;;;;;;0.20;0.20;;;12.50;99.90;;;;;;5012549;28;20022;-66
2023/01/04 12:31:50;;;;;;;0.00;0.00;;;12.50;99.90;;;;;;5012930;28;20483;-68
2023/01/04 12:34:22;;;;;;;0.20;0.20;;;12.50;99.90;;;;;;5012808;28;20537;-65
2023/01/04 12:36:59;;;;;;;0.93;0.52;;;12.50;99.90;;;;;;5012786;28;20080;-65
2023/01/04 12:39:43;;;;;;;0.00;0.00;;;12.60;99.90;;;;;;5012874;28;20030;-65
2023/01/04 12:42:16;;;;;;;1.92;1.00;;;12.60;99.90;;;;;;5012917;28;20022;-65
2023/01/04 12:44:42;;;;;;;0.52;0.47;;;12.60;99.90;;;;;;5012895;28;20422;-66
2023/01/04 12:50:26;;;;;;;0.35;0.35;;;12.70;99.90;;;;;;5011450;28;20077;-65
2023/01/04 12:53:00;;;;;;;0.90;0.40;;;12.70;99.90;;;;;;5012935;28;20034;-70
2023/01/04 12:55:50;;;;;;;0.40;0.40;;;12.80;99.90;;;;;;5012710;28;20102;-66
2023/01/04 12:58:28;;;;;;;0.75;0.70;;;12.80;99.90;;;;;;5012598;28;20110;-67
2023/01/04 13:00:54;;;;;;;1.30;0.82;;;12.80;99.90;;;;;;5012834;28;20030;-65
2023/01/04 13:03:19;;;;;;;0.90;0.47;;;12.90;99.90;;;;;;5012932;28;20064;-66
2023/01/04 13:05:59;;;;;;;1.15;0.85;;;12.90;99.90;;;;;;5012700;28;20061;-69
2023/01/04 13:08:26;;;;;;;0.10;0.10;;;13.00;99.90;;;;;;5012828;28;20109;-66
2023/01/04 13:10:55;;;;;;;1.35;0.40;;;13.00;99.90;;;;;;5012519;28;20030;-66
2023/01/04 13:13:38;;;;;;;1.63;1.10;;;13.10;99.90;;;;;;5012671;28;20356;-67
2023/01/04 13:16:18;;;;;;;0.10;0.10;;;13.10;99.90;;;;;;5012770;28;20017;-67
2023/01/04 13:18:57;;;;;;;0.30;0.30;;;13.10;99.90;;;;;;5012697;28;20034;-72
2023/01/04 13:21:39;;;;;;;6.88;0.85;;;13.10;99.90;;;;;;4994834;28;20038;-65
2023/01/04 13:24:23;;;;;;;2.08;0.90;;;13.10;99.90;;;;;;5012710;28;20029;-71
2023/01/04 13:26:50;;;;;;;0.45;0.32;;;13.10;99.90;;;;;;5012237;28;20046;-68
2023/01/04 13:29:21;;;;;;;0.35;0.35;;;13.10;99.90;;;;;;5012693;28;20429;-71
2023/01/04 13:31:57;;;;;;;0.40;0.35;;;13.20;99.90;;;;;;5012659;28;20113;-67
2023/01/04 13:35:00;;;;;;;0.30;0.30;;;13.20;99.90;;;;;;5012586;28;20038;-65
2023/01/04 13:37:59;;;;;;;1.10;0.60;;;13.20;99.90;;;;;;5007876;28;20049;-64
2023/01/04 13:40:36;;;;;;;0.52;0.30;;;13.20;99.90;;;;;;4979598;28;20041;-65
2023/01/04 13:43:13;;;;;;;0.80;0.63;;;13.20;99.90;;;;;;5014742;28;20038;-65
2023/01/04 13:45:51;;;;;;;1.10;0.85;;;13.30;99.90;;;;;;5015984;28;20065;-66
2023/01/04 13:48:21;;;;;;;1.38;0.63;;;13.30;99.90;;;;;;5016125;28;20069;-65
2023/01/04 13:51:03;;;;;;;0.30;0.30;;;13.40;99.90;;;;;;5015589;28;20054;-67